Pagrindinis puslapis
METAR-TAF:

METAR-TAF

Oro uostai :

Lavan Island, Iranas

platuma: 26-48-37N, ilguma: 53-21-22E, Aukštis: 23 m

Dabartinis oras

Ataskaita buvo paskelbta 8 valandos ir 12 minutes, ne 15:00 UTC
Vėjas 4 kt iš Vakarų
Temperatūra 33°C
Drėgmė 75%
Slėgis 1002 hPa
Matomumas: 7000 m

METAR: OIBV 241500Z 28004KT 7000 NSC 33/28 Q1002

Laikas: 02:42 (23:12 UTC)


TAF: trūkstamas

Orai ataskaitas ir orų prognozės (METAR, TAF).

turimą stotys yra geltonos ir raudonos taškus žemėlapyje.

Perkelti pele per norėdami pamatyti stoties vardą.

Tada spustelėkite, norėdami matyti oro stebėjimo ir prognozės.

Norėdami pakeisti žemėlapį: spustelėkite ant žalios mygtukų su juodo kryžiaus žemyn,; žalią mygtuką su brūkšneliu, jei norite nutolinti; arba žalių rodyklių gretimoms žemėlapius.


METAR-TAF: